Time;durP1;ratioP1;P1;durP2;ratioP2;P2;SDS_P1;SDS_P2;PMS_P1;PMS_P2;Temp;Humidity;BMP_temperature;BMP_pressure;BME280_temperature;BME280_humidity;BME280_pressure;Samples;Min_cycle;Max_cycle;Signal;HPM_P1;HPM_P2
2022/01/25 00:10:38;;;;;;;;;;;;;;;2.47;100.00;103023.47;2568230;30;138008;-36
2022/01/25 00:27:03;;;;;;;;;;;;;;;2.55;100.00;103013.03;2567370;30;137070;-36
2022/01/25 00:32:12;;;;;;;;;;;;;;;2.58;100.00;103018.19;2568482;30;137459;-36
2022/01/25 00:34:40;;;;;;;;;;;;;;;2.51;100.00;103023.13;2568951;30;139039;-36
2022/01/25 00:37:08;;;;;;;;;;;;;;;2.51;100.00;103028.53;2568889;30;136796;-36
2022/01/25 00:39:40;;;;;;;;;;;;;;;2.50;100.00;103020.56;2569732;30;138965;-36
2022/01/25 00:42:09;;;;;;;;;;;;;;;2.46;100.00;103017.22;2568223;30;137043;-36
2022/01/25 00:44:39;;;;;;;;;;;;;;;2.44;100.00;103022.72;2567431;30;137916;-36
2022/01/25 00:47:07;;;;;;;;;;;;;;;2.46;100.00;103017.22;2567546;30;137165;-36
2022/01/25 00:49:38;;;;;;;;;;;;;;;2.52;100.00;103007.84;2568199;30;137354;-36
2022/01/25 00:54:47;;;;;;;;;;;;;;;2.54;100.00;103024.78;2567098;30;138432;-36
2022/01/25 00:57:15;;;;;;;;;;;;;;;2.43;100.00;103025.50;2567733;30;138467;-36
2022/01/25 00:59:43;;;;;;;;;;;;;;;2.39;100.00;103024.88;2568912;30;137422;-36
2022/01/25 01:02:12;;;;;;;;;;;;;;;2.40;100.00;103017.63;2569133;30;138002;-36
2022/01/25 01:04:42;;;;;;;;;;;;;;;2.33;100.00;103013.63;2567578;30;138208;-36
2022/01/25 01:07:13;;;;;;;;;;;;;;;2.35;100.00;103027.88;2568094;30;137082;-36
2022/01/25 01:09:43;;;;;;;;;;;;;;;2.48;100.00;103031.44;2570556;30;137069;-40
2022/01/25 01:12:19;;;;;;;;;;;;;;;2.44;100.00;103019.16;2567716;30;137427;-41
2022/01/25 01:41:52;;;;;;;;;;;;;;;2.27;100.00;103020.28;2566558;30;138480;-41
2022/01/25 01:44:21;;;;;;;;;;;;;;;2.26;100.00;103023.97;2569060;30;137312;-41
2022/01/25 01:47:09;;;;;;;;;;;;;;;2.24;100.00;103021.34;2569595;30;138488;-41
2022/01/25 01:49:43;;;;;;;;;;;;;;;2.33;100.00;103019.03;2569022;30;136875;-41
2022/01/25 01:52:12;;;;;;;;;;;;;;;2.33;100.00;103019.88;2567981;30;137624;-40
2022/01/25 01:54:40;;;;;;;;;;;;;;;2.29;100.00;103023.75;2569116;30;136708;-40
2022/01/25 01:57:08;;;;;;;;;;;;;;;2.30;100.00;103026.34;2569362;30;137155;-41
2022/01/25 01:59:36;;;;;;;;;;;;;;;2.31;100.00;103024.50;2568913;30;137070;-40
2022/01/25 02:02:04;;;;;;;;;;;;;;;2.32;100.00;103010.06;2568324;30;139388;-40
2022/01/25 02:04:33;;;;;;;;;;;;;;;2.32;100.00;103015.44;2568838;30;137012;-41
2022/01/25 02:07:01;;;;;;;;;;;;;;;2.32;100.00;103010.06;2568394;30;138477;-40
2022/01/25 02:09:28;;;;;;;;;;;;;;;2.33;100.00;103017.19;2568231;30;137008;-40
2022/01/25 02:11:56;;;;;;;;;;;;;;;2.40;100.00;103017.63;2568353;30;139069;-40
2022/01/25 02:14:24;;;;;;;;;;;;;;;2.36;100.00;103013.44;2568408;30;137338;-40
2022/01/25 02:24:53;;;;;;;;;;;;;;;2.33;100.00;103009.09;2568421;30;137021;-41
2022/01/25 02:27:21;;;;;;;;;;;;;;;2.30;100.00;103009.31;2569088;30;137928;-40
2022/01/25 02:29:49;;;;;;;;;;;;;;;2.35;100.00;103012.53;2569168;30;137171;-41
2022/01/25 02:32:17;;;;;;;;;;;;;;;2.32;100.00;103006.53;2567785;30;138487;-40
2022/01/25 02:34:45;;;;;;;;;;;;;;;2.38;100.00;103004.25;2568512;30;137364;-41
2022/01/25 02:37:14;;;;;;;;;;;;;;;2.30;100.00;103010.19;2568543;30;138176;-40
2022/01/25 02:39:42;;;;;;;;;;;;;;;2.25;100.00;103008.75;2568706;30;137233;-41
2022/01/25 02:42:11;;;;;;;;;;;;;;;2.25;100.00;103000.69;2566128;30;137851;-41
2022/01/25 02:44:39;;;;;;;;;;;;;;;2.22;100.00;102996.34;2568219;30;137783;-41
2022/01/25 02:49:53;;;;;;;;;;;;;;;2.22;100.00;102998.19;2568596;30;136997;-40
2022/01/25 02:52:21;;;;;;;;;;;;;;;2.28;100.00;103001.34;2569462;30;138584;-41
2022/01/25 02:54:49;;;;;;;;;;;;;;;2.25;100.00;103001.53;2568805;30;137056;-41
2022/01/25 02:57:18;;;;;;;;;;;;;;;2.35;100.00;103001.78;2569415;30;138224;-40
2022/01/25 02:59:45;;;;;;;;;;;;;;;2.30;100.00;103003.91;2567530;30;136979;-41
2022/01/25 03:02:13;;;;;;;;;;;;;;;2.23;100.00;102999.91;2569214;30;138128;-40
2022/01/25 03:04:41;;;;;;;;;;;;;;;2.19;100.00;103001.94;2567235;30;137301;-41
2022/01/25 03:07:09;;;;;;;;;;;;;;;2.16;100.00;102994.09;2569105;30;138240;-40
2022/01/25 03:09:39;;;;;;;;;;;;;;;2.24;100.00;102988.19;2568278;30;137023;-41
2022/01/25 03:12:09;;;;;;;;;;;;;;;2.21;100.00;102996.47;2567376;30;139180;-41
2022/01/25 03:14:48;;;;;;;;;;;;;;;2.14;100.00;102990.63;2566054;30;137124;-40
2022/01/25 03:17:24;;;;;;;;;;;;;;;2.15;100.00;102990.53;2568394;30;138400;-40
2022/01/25 03:20:03;;;;;;;;;;;;;;;2.18;100.00;102994.00;2568366;30;137824;-41
2022/01/25 03:22:44;;;;;;;;;;;;;;;2.15;100.00;102995.94;2567976;30;138556;-41
2022/01/25 03:25:12;;;;;;;;;;;;;;;2.15;100.00;102990.53;2568600;30;136763;-41
2022/01/25 03:27:40;;;;;;;;;;;;;;;2.22;100.00;102987.44;2569043;30;137312;-41
2022/01/25 03:30:08;;;;;;;;;;;;;;;2.21;100.00;102988.41;2567658;30;137024;-41
2022/01/25 03:32:37;;;;;;;;;;;;;;;2.20;98.60;102990.22;2568764;30;138272;-41
2022/01/25 03:35:05;;;;;;;;;;;;;;;2.14;99.53;102975.34;2566878;30;137089;-40
2022/01/25 03:37:32;;;;;;;;;;;;;;;2.14;100.00;102978.03;2568181;30;138233;-40
2022/01/25 03:40:00;;;;;;;;;;;;;;;2.12;100.00;102976.41;2569161;30;137082;-41
2022/01/25 03:42:28;;;;;;;;;;;;;;;2.11;100.00;102982.75;2567050;30;138857;-41
2022/01/25 03:44:57;;;;;;;;;;;;;;;2.11;100.00;102983.59;2568965;30;136696;-41
2022/01/25 03:47:32;;;;;;;;;;;;;;;2.12;100.00;102976.41;2568730;30;138365;-40
2022/01/25 03:50:00;;;;;;;;;;;;;;;2.17;100.00;102976.09;2568480;30;137750;-41
2022/01/25 03:52:32;;;;;;;;;;;;;;;2.24;100.00;102977.41;2565532;30;138886;-41
2022/01/25 03:55:00;;;;;;;;;;;;;;;2.16;100.00;102975.22;2568165;30;136965;-41
2022/01/25 03:57:28;;;;;;;;;;;;;;;2.12;100.00;102976.41;2567864;30;139024;-40
2022/01/25 04:00:00;;;;;;;;;;;;;;;2.16;100.00;102975.22;2569350;30;138265;-40
2022/01/25 04:02:45;;;;;;;;;;;;;;;2.12;100.00;102971.91;2568491;30;136935;-40
2022/01/25 04:05:20;;;;;;;;;;;;;;;2.11;100.00;102972.00;2567561;30;137559;-41
2022/01/25 04:07:50;;;;;;;;;;;;;;;2.11;100.00;102962.06;2568649;30;139139;-41
2022/01/25 04:10:19;;;;;;;;;;;;;;;2.08;100.00;102970.34;2567467;30;137696;-40
2022/01/25 04:12:47;;;;;;;;;;;;;;;2.06;100.00;102957.97;2564623;30;138535;-40
2022/01/25 04:15:15;;;;;;;;;;;;;;;2.12;100.00;102962.94;2568952;30;137287;-41
2022/01/25 04:17:47;;;;;;;;;;;;;;;2.12;100.00;102963.81;2568974;30;139224;-40
2022/01/25 04:20:25;;;;;;;;;;;;;;;2.13;100.00;102956.59;2566925;30;137347;-42
2022/01/25 04:25:40;;;;;;;;;;;;;;;2.09;100.00;102958.63;2568533;30;137118;-41
2022/01/25 04:28:08;;;;;;;;;;;;;;;2.08;100.00;102962.28;2568183;30;138288;-41
2022/01/25 04:30:35;;;;;;;;;;;;;;;2.11;100.00;102961.22;2567952;30;137080;-40
2022/01/25 04:33:16;;;;;;;;;;;;;;;2.09;100.00;102958.63;2567613;30;138238;-40
2022/01/25 04:35:57;;;;;;;;;;;;;;;2.07;100.00;102965.09;2568241;30;136831;-40
2022/01/25 04:49:31;;;;;;;;;;;;;;;2.13;100.00;102962.84;2566194;30;138237;-40
2022/01/25 04:52:13;;;;;;;;;;;;;;;2.12;100.00;102962.94;2569756;30;138009;-41
2022/01/25 04:55:12;;;;;;;;;;;;;;;2.18;100.00;102962.50;2568621;30;139219;-41
2022/01/25 05:00:15;;;;;;;;;;;;;;;2.06;100.00;102956.13;2568312;30;137177;-40
2022/01/25 05:05:35;;;;;;;;;;;;;;;1.98;100.00;102950.41;2568697;30;138431;-41
2022/01/25 05:08:30;;;;;;;;;;;;;;;1.97;100.00;102946.84;2568183;30;136999;-41
2022/01/25 05:16:27;;;;;;;;;;;;;;;1.95;100.00;102950.63;2568438;30;137275;-40
2022/01/25 05:22:05;;;;;;;;;;;;;;;1.90;100.00;102955.47;2567572;30;137272;-41
2022/01/25 05:24:41;;;;;;;;;;;;;;;1.90;100.00;102955.47;2569199;30;136654;-41
2022/01/25 05:27:11;;;;;;;;;;;;;;;1.90;100.00;102955.47;2567151;30;137422;-41
2022/01/25 05:29:39;;;;;;;;;;;;;;;1.89;100.00;102959.13;2569392;30;136760;-41
2022/01/25 05:32:07;;;;;;;;;;;;;;;1.90;100.00;102959.00;2568011;30;138347;-41
2022/01/25 05:34:35;;;;;;;;;;;;;;;1.92;100.00;102951.69;2567573;30;136919;-40
2022/01/25 05:37:04;;;;;;;;;;;;;;;1.92;100.00;102959.75;2567572;30;139273;-41
2022/01/25 05:39:33;;;;;;;;;;;;;;;1.91;100.00;102955.34;2566928;30;137302;-40
2022/01/25 05:42:20;;;;;;;;;;;;;;;1.93;100.00;102952.56;2568101;30;139230;-40
2022/01/25 05:47:48;;;;;;;;;;;;;;;1.93;100.00;102953.41;2566427;30;137384;-40
2022/01/25 05:50:16;;;;;;;;;;;;;;;1.93;100.00;102950.72;2567486;30;137147;-40
2022/01/25 05:52:44;;;;;;;;;;;;;;;1.91;100.00;102946.41;2568551;30;136799;-41
2022/01/25 05:55:12;;;;;;;;;;;;;;;1.96;100.00;102947.81;2568611;30;137116;-41
2022/01/25 05:57:40;;;;;;;;;;;;;;;1.97;100.00;102946.00;2568599;30;139258;-41
2022/01/25 06:00:08;;;;;;;;;;;;;;;2.02;100.00;102946.53;2566885;30;137346;-41
2022/01/25 06:02:36;;;;;;;;;;;;;;;2.09;100.00;102945.16;2568167;30;137101;-41
2022/01/25 06:05:05;;;;;;;;;;;;;;;2.09;100.00;102950.53;2568814;30;136999;-41
2022/01/25 06:07:33;;;;;;;;;;;;;;;2.05;100.00;102949.03;2567846;30;137262;-41
2022/01/25 06:10:01;;;;;;;;;;;;;;;2.09;100.00;102937.06;2568856;30;137073;-41
2022/01/25 06:12:29;;;;;;;;;;;;;;;2.10;100.00;102949.56;2569412;30;137286;-40
2022/01/25 06:14:58;;;;;;;;;;;;;;;2.04;100.00;102941.06;2568213;30;137032;-41
2022/01/25 06:17:25;;;;;;;;;;;;;;;1.97;100.00;102948.69;2568249;30;138469;-40
2022/01/25 06:19:53;;;;;;;;;;;;;;;1.94;100.00;102951.59;2567132;30;137140;-40
2022/01/25 06:22:22;;;;;;;;;;;;;;;1.88;100.00;102955.53;2568146;30;138144;-40
2022/01/25 06:24:50;;;;;;;;;;;;;;;1.88;100.00;102950.16;2567714;30;137872;-41
2022/01/25 06:27:18;;;;;;;;;;;;;;;1.88;100.00;102952.84;2568436;30;137663;-41
2022/01/25 06:29:47;;;;;;;;;;;;;;;1.89;100.00;102951.88;2568274;30;137991;-41
2022/01/25 06:32:16;;;;;;;;;;;;;;;1.90;100.00;102950.06;2568466;30;139094;-40
2022/01/25 06:34:44;;;;;;;;;;;;;;;1.97;100.00;102956.75;2569324;30;136793;-40
2022/01/25 06:37:13;;;;;;;;;;;;;;;1.99;100.00;102963.78;2568039;30;137242;-40
2022/01/25 06:39:41;;;;;;;;;;;;;;;2.01;100.00;102955.59;2569747;30;136930;-41
2022/01/25 06:42:09;;;;;;;;;;;;;;;2.06;100.00;102957.97;2569035;30;137627;-40
2022/01/25 06:44:38;;;;;;;;;;;;;;;1.98;100.00;102955.78;2567973;30;136874;-40
2022/01/25 06:47:06;;;;;;;;;;;;;;;1.92;100.00;102961.59;2568440;30;138690;-40
2022/01/25 06:49:34;;;;;;;;;;;;;;;1.92;100.00;102966.97;2569912;30;136757;-40
2022/01/25 06:52:07;;;;;;;;;;;;;;;1.89;100.00;102967.19;2568009;30;137048;-41
2022/01/25 06:54:35;;;;;;;;;;;;;;;1.85;100.00;102959.28;2568501;30;137761;-40
2022/01/25 06:57:03;;;;;;;;;;;;;;;1.83;100.00;102963.06;2567697;30;137112;-41
2022/01/25 06:59:31;;;;;;;;;;;;;;;1.88;100.00;102965.47;2568918;30;137215;-40
2022/01/25 07:01:59;;;;;;;;;;;;;;;1.86;100.00;102970.94;2568203;30;138292;-41
2022/01/25 07:04:27;;;;;;;;;;;;;;;1.87;100.00;102975.34;2567287;30;136840;-41
2022/01/25 07:06:55;;;;;;;;;;;;;;;1.83;100.00;102972.00;2568328;30;139246;-40
2022/01/25 07:09:23;;;;;;;;;;;;;;;2.06;100.00;102972.28;2566639;30;137257;-40
2022/01/25 07:11:50;;;;;;;;;;;;;;;2.03;100.00;102967.13;2572675;30;140198;-38
2022/01/25 07:14:18;;;;;;;;;;;;;;;1.95;100.00;102972.16;2568831;30;137825;-38
2022/01/25 07:16:46;;;;;;;;;;;;;;;1.97;100.00;102963.00;2568498;30;138222;-38
2022/01/25 07:19:14;;;;;;;;;;;;;;;1.98;100.00;102961.19;2567214;30;137478;-38
2022/01/25 07:21:45;;;;;;;;;;;;;;;1.93;99.87;102963.31;2568273;30;137081;-38
2022/01/25 07:24:13;;;;;;;;;;;;;;;1.90;99.39;102956.31;2569107;30;137137;-37
2022/01/25 07:26:41;;;;;;;;;;;;;;;1.99;100.00;102952.13;2566334;30;138505;-37
2022/01/25 07:29:08;;;;;;;;;;;;;;;1.99;99.72;102957.53;2569075;30;137003;-36
2022/01/25 07:31:36;;;;;;;;;;;;;;;1.97;99.67;102960.31;2567651;30;139225;-36
2022/01/25 07:34:11;;;;;;;;;;;;;;;2.04;99.39;102968.00;2569291;30;137112;-36
2022/01/25 07:36:42;;;;;;;;;;;;;;;1.88;99.02;102960.94;2567523;30;138397;-38
2022/01/25 07:39:26;;;;;;;;;;;;;;;1.88;100.00;102965.47;2566280;30;136720;-36
2022/01/25 07:42:04;;;;;;;;;;;;;;;1.85;100.00;102963.81;2567894;30;137194;-36
2022/01/25 07:44:41;;;;;;;;;;;;;;;1.91;100.00;102965.25;2567595;30;138837;-36
2022/01/25 07:47:09;;;;;;;;;;;;;;;1.88;100.00;102965.47;2568573;30;139150;-36
2022/01/25 07:49:37;;;;;;;;;;;;;;;1.92;100.00;102961.59;2567525;30;138224;-36
2022/01/25 07:52:05;;;;;;;;;;;;;;;1.83;100.00;102969.31;2568344;30;137833;-36
2022/01/25 07:54:33;;;;;;;;;;;;;;;1.85;100.00;102967.38;2568420;30;136914;-36
2022/01/25 07:57:01;;;;;;;;;;;;;;;1.84;100.00;102971.03;2568471;30;138975;-36
2022/01/25 07:59:29;;;;;;;;;;;;;;;1.85;100.00;102978.13;2567396;30;137150;-36
2022/01/25 08:01:57;;;;;;;;;;;;;;;1.92;99.73;102975.06;2567238;30;138284;-36
2022/01/25 08:04:35;;;;;;;;;;;;;;;1.85;98.64;102972.75;2568444;30;138159;-36
2022/01/25 08:07:19;;;;;;;;;;;;;;;1.81;98.17;102973.94;2567720;30;137365;-36
2022/01/25 08:09:59;;;;;;;;;;;;;;;1.78;99.18;102976.81;2568641;30;136649;-36
2022/01/25 08:12:41;;;;;;;;;;;;;;;1.78;99.15;102984.06;2568149;30;138465;-36
2022/01/25 08:15:16;;;;;;;;;;;;;;;1.80;99.32;102984.81;2567699;30;137600;-36
2022/01/25 08:18:12;;;;;;;;;;;;;;;1.77;98.99;102979.63;2567832;30;138228;-36
2022/01/25 08:20:54;;;;;;;;;;;;;;;1.79;99.67;102975.84;2566400;30;137468;-36
2022/01/25 08:23:39;;;;;;;;;;;;;;;1.80;100.00;102985.66;2566368;30;137779;-36
2022/01/25 08:26:33;;;;;;;;;;;;;;;1.88;100.00;102987.00;2567792;30;137123;-36
2022/01/25 08:29:27;;;;;;;;;;;;;;;1.83;99.61;102985.44;2566487;30;138382;-36
2022/01/25 08:32:15;;;;;;;;;;;;;;;1.90;98.85;102987.75;2566149;30;138028;-36
2022/01/25 08:35:03;;;;;;;;;;;;;;;1.85;99.55;102988.91;2567109;30;139267;-36
2022/01/25 08:37:45;;;;;;;;;;;;;;;1.90;99.84;102985.91;2565067;30;137977;-36
2022/01/25 08:40:30;;;;;;;;;;;;;;;1.89;100.00;102986.03;2564566;30;139187;-36
2022/01/25 08:43:10;;;;;;;;;;;;;;;1.94;100.00;102986.59;2566735;30;137025;-36
2022/01/25 08:45:48;;;;;;;;;;;;;;;1.89;100.00;102994.97;2567118;30;138223;-36
2022/01/25 08:48:28;;;;;;;;;;;;;;;1.98;100.00;102988.94;2568575;30;137144;-36
2022/01/25 08:51:14;;;;;;;;;;;;;;;2.01;100.00;102988.78;2567050;30;139158;-36
2022/01/25 08:54:05;;;;;;;;;;;;;;;2.03;100.00;102988.66;2566384;30;137226;-36
2022/01/25 08:56:46;;;;;;;;;;;;;;;2.06;99.03;102988.44;2566619;30;139301;-36
2022/01/25 08:59:31;;;;;;;;;;;;;;;2.02;99.55;102995.00;2567325;30;137518;-35
2022/01/25 09:01:59;;;;;;;;;;;;;;;2.04;100.00;102993.06;2566650;30;138264;-36
2022/01/25 09:04:28;;;;;;;;;;;;;;;2.07;100.00;102998.25;2566623;30;137256;-36
2022/01/25 09:06:55;;;;;;;;;;;;;;;2.09;100.00;102995.47;2566835;30;137241;-36
2022/01/25 09:09:23;;;;;;;;;;;;;;;2.12;100.00;102997.94;2564442;30;136899;-36
2022/01/25 09:11:51;;;;;;;;;;;;;;;2.16;100.00;102999.47;2566642;30;136915;-36
2022/01/25 09:14:19;;;;;;;;;;;;;;;2.21;100.00;102989.25;2566976;30;136846;-36
2022/01/25 09:16:47;;;;;;;;;;;;;;;2.23;99.66;102999.91;2566712;30;139438;-36
2022/01/25 09:19:16;;;;;;;;;;;;;;;2.23;99.70;103011.53;2567481;30;137124;-36
2022/01/25 09:21:44;;;;;;;;;;;;;;;2.37;99.19;103007.91;2566908;30;138662;-36
2022/01/25 09:24:11;;;;;;;;;;;;;;;2.35;98.14;103011.69;2568374;30;137511;-36
2022/01/25 09:26:39;;;;;;;;;;;;;;;2.35;98.86;103017.94;2564890;30;137663;-36
2022/01/25 09:29:07;;;;;;;;;;;;;;;2.41;99.33;103011.28;2565020;30;137194;-36
2022/01/25 09:31:35;;;;;;;;;;;;;;;2.38;96.67;103019.56;2568895;30;139067;-36
2022/01/25 09:34:06;;;;;;;;;;;;;;;2.32;96.56;103015.44;2568525;30;136729;-36
2022/01/25 09:36:34;;;;;;;;;;;;;;;2.29;96.91;103024.63;2567911;30;138749;-36
2022/01/25 09:39:02;;;;;;;;;;;;;;;2.41;98.36;103022.94;2569469;30;137050;-38
2022/01/25 09:41:29;;;;;;;;;;;;;;;2.38;98.26;103016.88;2568647;30;138217;-38
2022/01/25 09:43:57;;;;;;;;;;;;;;;2.40;99.12;103023.91;2568454;30;138257;-38
2022/01/25 09:46:25;;;;;;;;;;;;;;;2.38;98.75;103024.97;2567964;30;138097;-38
2022/01/25 09:48:53;;;;;;;;;;;;;;;2.43;98.16;103023.69;2568991;30;136887;-38
2022/01/25 09:51:22;;;;;;;;;;;;;;;2.41;98.99;103017.53;2570002;30;138387;-38
2022/01/25 09:53:50;;;;;;;;;;;;;;;2.48;98.56;103022.50;2568410;30;136985;-38
2022/01/25 09:56:18;;;;;;;;;;;;;;;2.53;97.39;103026.63;2569613;30;137130;-38
2022/01/25 09:58:45;;;;;;;;;;;;;;;2.58;95.40;103026.28;2568253;30;136778;-35
2022/01/25 10:01:15;;;;;;;;;;;;;;;2.51;95.94;103022.28;2568689;30;137078;-36
2022/01/25 10:03:45;;;;;;;;;;;;;;;2.51;95.80;103022.28;2569418;30;136870;-38
2022/01/25 10:06:17;;;;;;;;;;;;;;;2.50;96.45;103028.66;2568131;30;138152;-38
2022/01/25 10:08:45;;;;;;;;;;;;;;;2.51;97.58;103019.59;2568439;30;136664;-36
2022/01/25 10:11:15;;;;;;;;;;;;;;;2.55;97.80;103023.81;2569011;30;138067;-36
2022/01/25 10:13:49;;;;;;;;;;;;;;;2.55;97.94;103021.09;2567377;30;137035;-36
2022/01/25 10:16:18;;;;;;;;;;;;;;;2.57;97.05;103027.25;2568030;30;138515;-36
2022/01/25 10:18:46;;;;;;;;;;;;;;;2.59;97.28;103030.69;2569282;30;136897;-36
2022/01/25 10:21:16;;;;;;;;;;;;;;;2.61;97.06;103033.31;2568170;30;138269;-36
2022/01/25 10:24:02;;;;;;;;;;;;;;;2.57;96.44;103032.63;2568775;30;137254;-36
2022/01/25 10:26:31;;;;;;;;;;;;;;;2.59;96.30;103036.09;2569003;30;138541;-36
2022/01/25 10:29:11;;;;;;;;;;;;;;;2.58;96.17;103039.75;2565847;30;137077;-36
2022/01/25 10:31:40;;;;;;;;;;;;;;;2.62;98.31;103040.41;2567786;30;138409;-36
2022/01/25 10:34:09;;;;;;;;;;;;;;;2.69;95.77;103036.31;2568618;30;136796;-36
2022/01/25 10:36:48;;;;;;;;;;;;;;;2.71;95.50;103040.66;2569181;30;138232;-36
2022/01/25 10:39:20;;;;;;;;;;;;;;;2.73;95.87;103041.41;2568620;30;137066;-36
2022/01/25 10:41:48;;;;;;;;;;;;;;;2.67;96.24;103033.75;2568707;30;139119;-36
2022/01/25 10:44:16;;;;;;;;;;;;;;;2.71;97.05;103034.38;2568886;30;136967;-36
2022/01/25 10:46:44;;;;;;;;;;;;;;;2.74;97.37;103023.38;2565844;30;136969;-36
2022/01/25 10:49:13;;;;;;;;;;;;;;;2.78;97.94;103019.50;2568669;30;136784;-36
2022/01/25 10:51:46;;;;;;;;;;;;;;;2.78;97.31;103018.66;2567458;30;137933;-36
2022/01/25 10:54:16;;;;;;;;;;;;;;;2.79;97.32;103017.69;2567792;30;136986;-36
2022/01/25 10:56:46;;;;;;;;;;;;;;;2.87;97.70;103026.09;2567942;30;139058;-36
2022/01/25 10:59:16;;;;;;;;;;;;;;;2.87;96.09;103018.00;2567687;30;137872;-36
2022/01/25 11:01:48;;;;;;;;;;;;;;;2.86;95.39;103022.53;2568677;30;138142;-36
2022/01/25 11:04:17;;;;;;;;;;;;;;;2.81;96.12;103018.44;2569656;30;138023;-36
2022/01/25 11:06:52;;;;;;;;;;;;;;;2.79;96.46;103015.88;2568878;30;138296;-36
2022/01/25 11:09:22;;;;;;;;;;;;;;;2.80;95.37;103020.28;2567533;30;136898;-35
2022/01/25 11:11:53;;;;;;;;;;;;;;;2.84;95.91;103016.41;2566536;30;139207;-36
2022/01/25 11:17:07;;;;;;;;;;;;;;;2.89;94.79;103013.34;2568399;30;138498;-36
2022/01/25 11:19:36;;;;;;;;;;;;;;;2.94;95.33;103013.03;2569140;30;137807;-36
2022/01/25 11:22:04;;;;;;;;;;;;;;;2.89;96.04;103016.06;2567236;30;138530;-36
2022/01/25 11:24:34;;;;;;;;;;;;;;;2.93;95.80;103011.31;2568931;30;137369;-36
2022/01/25 11:27:04;;;;;;;;;;;;;;;2.98;95.76;103009.16;2566528;30;137815;-36
2022/01/25 11:29:34;;;;;;;;;;;;;;;3.00;95.64;103012.59;2569652;30;137238;-36
2022/01/25 11:32:04;;;;;;;;;;;;;;;2.99;95.18;103011.75;2568455;30;138484;-36
2022/01/25 11:34:33;;;;;;;;;;;;;;;3.01;94.64;103008.94;2567932;30;137064;-36
2022/01/25 11:37:07;;;;;;;;;;;;;;;3.02;94.39;103008.84;2568627;30;138891;-36
2022/01/25 11:39:39;;;;;;;;;;;;;;;3.07;94.92;103010.34;2568134;30;137400;-36
2022/01/25 11:42:08;;;;;;;;;;;;;;;3.05;94.27;103015.00;2567813;30;138457;-36
2022/01/25 11:44:45;;;;;;;;;;;;;;;3.09;94.18;103017.38;2565053;38;138269;-36
2022/01/25 11:47:16;;;;;;;;;;;;;;;3.13;93.76;103016.19;2565738;30;138378;-36
2022/01/25 11:49:49;;;;;;;;;;;;;;;3.13;94.09;103015.28;2568089;30;136911;-36
2022/01/25 11:52:17;;;;;;;;;;;;;;;3.13;94.75;103009.91;2567883;30;137630;-36
2022/01/25 11:54:46;;;;;;;;;;;;;;;3.10;93.20;103015.50;2568554;30;137048;-36
2022/01/25 11:57:15;;;;;;;;;;;;;;;3.10;94.65;103005.59;2569915;30;137374;-36
2022/01/25 11:59:49;;;;;;;;;;;;;;;3.15;94.30;103005.25;2568660;30;137158;-36
2022/01/25 12:02:36;;;;;;;;;;;;;;;3.10;93.80;103008.31;2567909;30;138342;-36
2022/01/25 12:05:05;;;;;;;;;;;;;;;3.13;93.41;103001.81;2569060;30;136936;-36
2022/01/25 12:07:39;;;;;;;;;;;;;;;3.11;92.86;103010.03;2568499;30;139091;-36
2022/01/25 12:10:26;;;;;;;;;;;;;;;3.08;93.67;103009.38;2568905;30;137012;-36
2022/01/25 12:13:10;;;;;;;;;;;;;;;3.07;93.38;103004.94;2567857;30;139205;-36
2022/01/25 12:15:38;;;;;;;;;;;;;;;3.12;93.75;103005.47;2569929;30;137081;-36
2022/01/25 12:18:24;;;;;;;;;;;;;;;3.13;93.37;103001.81;2567798;30;138192;-36
2022/01/25 12:20:52;;;;;;;;;;;;;;;3.16;93.32;103012.38;2567358;30;138047;-36
2022/01/25 12:23:35;;;;;;;;;;;;;;;3.21;91.81;103002.13;2568825;30;138398;-36
2022/01/25 12:26:07;;;;;;;;;;;;;;;3.16;91.51;103001.59;2569740;30;137041;-36
2022/01/25 12:28:50;;;;;;;;;;;;;;;3.15;92.30;103005.25;2567052;30;138947;-36
2022/01/25 12:31:18;;;;;;;;;;;;;;;3.11;91.62;102998.34;2568511;30;136830;-36
2022/01/25 12:33:46;;;;;;;;;;;;;;;3.16;93.34;103006.97;2569134;30;139014;-35
2022/01/25 12:36:14;;;;;;;;;;;;;;;3.12;92.25;103000.09;2566271;30;137618;-36
2022/01/25 12:38:43;;;;;;;;;;;;;;;3.11;92.82;102992.97;2567399;30;137099;-36
2022/01/25 12:41:12;;;;;;;;;;;;;;;3.12;92.83;102989.28;2568174;30;137760;-36
2022/01/25 12:44:04;;;;;;;;;;;;;;;3.12;92.57;102989.28;2568223;30;137285;-36
2022/01/25 12:46:34;;;;;;;;;;;;;;;3.12;91.50;102989.28;2567883;30;137104;-36
2022/01/25 12:49:04;;;;;;;;;;;;;;;3.05;92.49;102988.91;2567957;30;137231;-36
2022/01/25 12:51:33;;;;;;;;;;;;;;;3.07;92.12;102975.28;2567562;30;138557;-36
2022/01/25 12:54:03;;;;;;;;;;;;;;;3.07;92.63;102977.97;2568107;30;138390;-36
2022/01/25 12:56:40;;;;;;;;;;;;;;;3.07;91.91;102976.16;2568588;30;137200;-36
2022/01/25 12:59:10;;;;;;;;;;;;;;;3.14;91.13;102974.72;2567300;30;138178;-36
2022/01/25 13:01:40;;;;;;;;;;;;;;;3.10;92.15;102972.34;2568705;30;137916;-36
2022/01/25 13:04:08;;;;;;;;;;;;;;;3.08;91.52;102969.78;2570002;30;139029;-36
2022/01/25 13:06:38;;;;;;;;;;;;;;;3.09;91.40;102967.94;2569457;30;137370;-36
2022/01/25 13:12:56;;;;;;;;;;;;;;;3.18;93.31;102956.47;2567509;30;136833;-40
2022/01/25 13:15:52;;;;;;;;;;;;;;;3.24;92.91;102955.19;2568750;30;136888;-40
2022/01/25 13:18:20;;;;;;;;;;;;;;;3.28;93.22;102946.75;2569402;30;137323;-40
2022/01/25 13:20:57;;;;;;;;;;;;;;;3.26;91.62;102945.13;2568998;30;137759;-40
2022/01/25 13:23:25;;;;;;;;;;;;;;;3.24;92.29;102944.38;2568789;30;139205;-40
2022/01/25 13:25:55;;;;;;;;;;;;;;;3.27;92.66;102939.63;2568706;30;137914;-40
2022/01/25 13:31:17;;;;;;;;;;;;;;;3.29;91.12;102932.28;2568105;30;137014;-40
2022/01/25 13:33:45;;;;;;;;;;;;;;;3.32;92.08;102936.59;2567792;30;138326;-40
2022/01/25 13:36:16;;;;;;;;;;;;;;;3.29;92.26;102928.72;2568448;30;136695;-40
2022/01/25 13:38:46;;;;;;;;;;;;;;;3.34;92.17;102928.38;2568888;30;139012;-40
2022/01/25 13:41:39;;;;;;;;;;;;;;;3.35;93.06;102930.09;2568379;30;138032;-40
2022/01/25 13:46:39;;;;;;;;;;;;;;;3.36;90.26;102934.53;2568412;30;138095;-40
2022/01/25 13:49:17;;;;;;;;;;;;;;;3.35;89.68;102924.72;2568571;30;138368;-40
2022/01/25 13:51:54;;;;;;;;;;;;;;;3.30;91.56;102928.63;2567673;30;137404;-40
2022/01/25 13:54:23;;;;;;;;;;;;;;;3.23;91.13;102923.78;2568857;30;138311;-40
2022/01/25 13:56:51;;;;;;;;;;;;;;;3.16;91.77;102923.34;2569555;30;136959;-40
2022/01/25 13:59:24;;;;;;;;;;;;;;;3.16;91.77;102926.06;2568380;30;138540;-40
2022/01/25 14:01:52;;;;;;;;;;;;;;;3.21;91.41;102926.59;2566477;30;138437;-40
2022/01/25 14:04:22;;;;;;;;;;;;;;;3.24;91.60;102920.09;2568419;30;138233;-40
2022/01/25 14:06:54;;;;;;;;;;;;;;;3.22;92.66;102917.53;2568932;30;136738;-40
2022/01/25 14:09:29;;;;;;;;;;;;;;;3.22;92.04;102919.34;2566689;30;138316;-40
2022/01/25 14:23:22;;;;;;;;;;;;;;;3.16;91.93;102926.94;2566533;30;137214;-40
2022/01/25 14:26:06;;;;;;;;;;;;;;;3.19;91.24;102924.97;2568377;30;137677;-40
2022/01/25 14:28:53;;;;;;;;;;;;;;;3.21;92.39;102921.19;2567984;30;137130;-40
2022/01/25 14:31:25;;;;;;;;;;;;;;;3.22;92.16;102919.34;2568881;30;137673;-40
2022/01/25 14:33:54;;;;;;;;;;;;;;;3.20;93.41;102911.38;2568419;30;137074;-40
2022/01/25 14:36:23;;;;;;;;;;;;;;;3.17;92.61;102912.47;2568242;30;138905;-40
2022/01/25 14:38:54;;;;;;;;;;;;;;;3.16;90.10;102915.25;2566641;30;137480;-40
2022/01/25 14:41:25;;;;;;;;;;;;;;;3.11;92.26;102912.91;2566805;30;139625;-40
2022/01/25 14:43:55;;;;;;;;;;;;;;;3.12;92.36;102911.06;2568380;30;136711;-40
2022/01/25 14:46:25;;;;;;;;;;;;;;;3.07;92.29;102910.53;2568406;30;139213;-40
2022/01/25 14:48:57;;;;;;;;;;;;;;;3.03;91.71;102909.91;2568680;30;137897;-40
2022/01/25 14:51:31;;;;;;;;;;;;;;;3.02;92.03;102910.88;2566736;30;138919;-40
2022/01/25 14:54:00;;;;;;;;;;;;;;;2.96;91.72;102897.84;2567401;30;137150;-40